createdAt,value
2019-02-24T11:56:19.675Z,36.40
2019-02-24T11:58:51.063Z,36.10
2019-02-24T12:01:22.280Z,34.70
2019-02-24T12:04:05.850Z,33.30
2019-02-24T12:06:37.235Z,33.60
2019-02-24T12:09:08.488Z,32.10
2019-02-24T12:11:39.874Z,32.20
2019-02-24T12:14:10.907Z,32.20
2019-02-24T12:16:42.313Z,31.80
2019-02-24T12:19:13.511Z,31.40
2019-02-24T12:21:44.803Z,32.00
2019-02-24T12:24:16.074Z,31.40
2019-02-24T12:26:47.371Z,31.00
2019-02-24T12:29:18.524Z,30.20
2019-02-24T12:31:56.421Z,31.20
2019-02-24T12:34:22.663Z,31.80
2019-02-24T12:36:53.952Z,31.30
2019-02-24T12:39:25.205Z,31.70
2019-02-24T12:41:56.470Z,32.00
2019-02-24T12:44:27.625Z,31.70
2019-02-24T12:47:00.471Z,31.80
2019-02-24T12:49:31.819Z,31.60
2019-02-24T12:52:03.263Z,31.30
2019-02-24T12:54:34.335Z,30.50
2019-02-24T12:57:05.653Z,35.50
2019-02-24T12:59:36.820Z,37.10
2019-02-24T13:02:08.356Z,36.20
2019-02-24T13:04:39.659Z,36.30
2019-02-24T13:07:11.361Z,34.80
2019-02-24T13:09:42.473Z,34.90
2019-02-24T13:12:13.648Z,36.00
2019-02-24T13:14:44.761Z,35.30
2019-02-24T13:17:16.222Z,34.70
2019-02-24T13:19:47.473Z,35.30
2019-02-24T13:22:19.041Z,34.40
2019-02-24T13:24:51.023Z,36.70
2019-02-24T13:27:22.365Z,36.80
2019-02-24T13:29:53.487Z,39.30
2019-02-24T13:32:24.875Z,38.20
2019-02-24T13:34:57.048Z,40.50
2019-02-24T13:37:28.467Z,39.90
2019-02-24T13:40:00.964Z,39.10
2019-02-24T13:42:32.539Z,36.90
2019-02-24T13:45:03.744Z,35.30
2019-02-24T13:47:35.030Z,34.90
2019-02-24T13:50:06.423Z,33.50
2019-02-24T13:52:38.953Z,32.60
2019-02-24T13:55:12.015Z,31.90
2019-02-24T13:57:43.461Z,33.60
2019-02-24T14:00:16.187Z,34.20
2019-02-24T14:02:47.901Z,31.70
2019-02-24T14:05:19.418Z,31.90
2019-02-24T14:07:51.821Z,30.30
2019-02-24T14:10:22.903Z,29.70
2019-02-24T14:12:54.316Z,30.00
2019-02-24T14:15:25.463Z,29.70
2019-02-24T14:17:57.943Z,29.50
2019-02-24T14:20:29.009Z,29.80
2019-02-24T14:23:00.438Z,29.20
2019-02-24T14:25:31.619Z,28.60
2019-02-24T14:28:02.932Z,28.20
2019-02-24T14:30:34.155Z,28.60
2019-02-24T14:33:05.629Z,29.70
2019-02-24T14:35:36.686Z,28.70
2019-02-24T14:38:08.119Z,28.80
2019-02-24T14:40:39.232Z,28.30
2019-02-24T14:43:10.503Z,28.30
2019-02-24T14:45:49.440Z,28.30
2019-02-24T14:48:14.639Z,27.50
2019-02-24T14:50:45.709Z,27.50
2019-02-24T14:53:17.036Z,27.40
2019-02-24T14:55:48.176Z,27.60
2019-02-24T14:58:19.551Z,27.70
2019-02-24T15:00:50.695Z,27.60
2019-02-24T15:03:22.035Z,28.00
2019-02-24T15:05:53.103Z,28.10
2019-02-24T15:08:24.741Z,27.60
2019-02-24T15:10:55.884Z,28.10
2019-02-24T15:13:27.217Z,26.90
2019-02-24T15:15:58.275Z,27.80
2019-02-24T15:18:29.713Z,28.50
2019-02-24T15:21:00.894Z,28.70
2019-02-24T15:23:32.215Z,27.50
2019-02-24T15:26:03.295Z,27.90
2019-02-24T15:28:34.593Z,27.80
2019-02-24T15:34:18.568Z,28.10
2019-02-24T15:36:49.705Z,27.20
2019-02-24T15:39:21.053Z,27.60
2019-02-24T15:41:52.129Z,27.50
2019-02-24T15:44:23.507Z,26.10
2019-02-24T15:46:54.643Z,26.40
2019-02-24T15:49:25.946Z,26.00
2019-02-24T15:51:57.035Z,26.40
2019-02-24T15:54:29.309Z,27.00
2019-02-24T15:57:00.621Z,26.30
2019-02-24T15:59:31.956Z,26.80
2019-02-24T16:02:03.146Z,26.50
2019-02-24T16:04:34.551Z,26.20
2019-02-24T16:07:06.609Z,26.10
2019-02-24T16:09:37.973Z,26.40
2019-02-24T16:12:10.121Z,26.60
2019-02-24T16:14:41.522Z,26.90
2019-02-24T16:17:12.600Z,26.50
2019-02-24T16:19:44.097Z,26.80
2019-02-24T16:22:15.390Z,28.00
2019-02-24T16:24:46.735Z,28.50
2019-02-24T16:27:17.793Z,28.90
2019-02-24T16:29:49.285Z,28.90
2019-02-24T16:32:20.403Z,29.20
2019-02-24T16:34:52.675Z,29.40
2019-02-24T16:37:23.788Z,29.80
2019-02-24T16:39:55.008Z,30.50
2019-02-24T16:42:26.100Z,31.20
2019-02-24T16:44:57.551Z,32.30
2019-02-24T16:47:28.672Z,32.40
2019-02-24T16:50:00.309Z,33.50
2019-02-24T16:52:31.461Z,35.30
2019-02-24T16:55:02.881Z,35.90
2019-02-24T16:57:33.935Z,37.70
2019-02-24T17:00:07.754Z,39.40
2019-02-24T17:02:39.078Z,39.90
2019-02-24T17:05:10.421Z,40.90
2019-02-24T17:07:41.640Z,41.70
2019-02-24T17:10:14.978Z,41.10
2019-02-24T17:12:46.177Z,41.80
2019-02-24T17:15:17.569Z,43.00
2019-02-24T17:17:48.987Z,43.00
2019-02-24T17:20:20.464Z,44.60
2019-02-24T17:22:51.677Z,45.00
2019-02-24T17:25:23.075Z,45.80
2019-02-24T17:27:54.538Z,46.50
2019-02-24T17:30:26.825Z,47.40
2019-02-24T17:32:57.884Z,47.40
2019-02-24T17:35:29.605Z,47.90
2019-02-24T17:38:00.752Z,48.70
2019-02-24T17:40:33.497Z,50.00
2019-02-24T17:43:04.649Z,50.60
2019-02-24T17:45:36.060Z,51.40
2019-02-24T17:48:07.199Z,51.30
2019-02-24T17:50:38.459Z,50.40
2019-02-24T17:53:09.586Z,50.90
2019-02-24T17:55:41.491Z,51.20
2019-02-24T17:58:12.891Z,51.80
2019-02-24T18:00:50.665Z,52.90
2019-02-24T18:03:21.799Z,53.60
2019-02-24T18:05:53.259Z,53.40
2019-02-24T18:08:28.270Z,55.00
2019-02-24T18:10:57.887Z,55.00
2019-02-24T18:13:29.003Z,55.30
2019-02-24T18:16:00.614Z,55.80
2019-02-24T18:18:31.779Z,56.00
2019-02-24T18:21:03.099Z,54.70
2019-02-24T18:23:34.279Z,54.60
2019-02-24T18:26:05.647Z,56.20
2019-02-24T18:28:36.839Z,55.30
2019-02-24T18:31:08.243Z,54.40
2019-02-24T18:33:47.896Z,54.30
2019-02-24T18:36:12.647Z,53.40
2019-02-24T18:38:43.736Z,53.80
2019-02-24T18:41:15.038Z,55.00
2019-02-24T18:43:46.373Z,54.30
2019-02-24T18:46:17.624Z,55.30
2019-02-24T18:48:48.759Z,56.30
2019-02-24T18:51:21.065Z,58.00
2019-02-24T18:53:52.265Z,58.90
2019-02-24T18:56:23.532Z,58.40
2019-02-24T18:58:54.622Z,57.00
2019-02-24T19:01:26.122Z,57.60
2019-02-24T19:03:58.128Z,57.20
2019-02-24T19:06:38.758Z,57.10
2019-02-24T19:09:02.453Z,55.90
2019-02-24T19:11:35.413Z,54.90
2019-02-24T19:14:07.561Z,61.00
2019-02-24T19:16:38.775Z,65.50
2019-02-24T19:19:09.875Z,68.80
2019-02-24T19:21:41.054Z,71.10
2019-02-24T19:24:12.105Z,75.40
2019-02-24T19:26:43.307Z,74.20
2019-02-24T19:29:14.389Z,72.90
2019-02-24T19:31:45.689Z,75.10
2019-02-24T19:34:16.806Z,75.50
2019-02-24T19:36:48.615Z,78.70
2019-02-24T19:39:20.177Z,77.60
2019-02-24T19:41:51.609Z,77.50
2019-02-24T19:44:22.700Z,79.10
2019-02-24T19:46:54.045Z,75.70
2019-02-24T19:49:25.248Z,74.60
2019-02-24T19:51:56.637Z,71.50
2019-02-24T19:54:27.767Z,70.40
2019-02-24T19:56:59.496Z,69.40
2019-02-24T19:59:30.544Z,71.40
2019-02-24T20:02:01.693Z,67.80
2019-02-24T20:04:32.813Z,66.30
2019-02-24T20:07:04.299Z,67.80
2019-02-24T20:09:35.370Z,66.30
2019-02-24T20:12:06.619Z,65.00
2019-02-24T20:14:37.745Z,63.60
2019-02-24T20:17:09.085Z,61.30
2019-02-24T20:19:40.159Z,60.70
2019-02-24T20:22:11.481Z,59.80
2019-02-24T20:24:42.541Z,58.30
2019-02-24T20:27:14.787Z,58.30
2019-02-24T20:29:46.117Z,65.60
2019-02-24T20:32:17.390Z,72.30
2019-02-24T20:34:48.534Z,74.70
2019-02-24T20:37:20.089Z,73.70
2019-02-24T20:39:51.161Z,66.20
2019-02-24T20:42:24.630Z,66.20
2019-02-24T20:44:55.757Z,62.20
2019-02-24T20:47:27.130Z,61.80
2019-02-24T20:49:58.309Z,60.30
2019-02-24T20:52:29.800Z,59.50
2019-02-24T20:55:00.959Z,59.10
2019-02-24T20:57:32.261Z,60.70
2019-02-24T21:00:03.640Z,62.30
2019-02-24T21:02:36.443Z,63.90
2019-02-24T21:05:07.547Z,60.90
2019-02-24T21:07:38.785Z,59.10
2019-02-24T21:10:10.337Z,57.10
2019-02-24T21:12:41.851Z,57.30
2019-02-24T21:15:13.643Z,58.20
2019-02-24T21:17:45.890Z,61.80
2019-02-24T21:20:19.070Z,62.70
2019-02-24T21:22:50.789Z,63.00
2019-02-24T21:25:22.033Z,66.90
2019-02-24T21:27:53.873Z,65.10
2019-02-24T21:30:25.119Z,66.30
2019-02-24T21:32:56.429Z,65.00
2019-02-24T21:35:27.532Z,64.20
2019-02-24T21:37:59.057Z,63.80
2019-02-24T21:40:32.715Z,59.40
2019-02-24T21:43:03.873Z,63.20
2019-02-24T21:45:38.675Z,58.80
2019-02-24T21:48:10.659Z,56.40
2019-02-24T21:50:42.265Z,53.80
2019-02-24T21:53:13.568Z,53.30
2019-02-24T21:55:44.799Z,54.00
2019-02-24T21:58:16.065Z,54.40
2019-02-24T22:00:47.325Z,54.30
2019-02-24T22:03:18.657Z,53.20
2019-02-24T22:05:49.822Z,52.60
2019-02-24T22:08:21.360Z,51.90
2019-02-24T22:10:52.741Z,56.80
2019-02-24T22:13:25.185Z,54.10
2019-02-24T22:15:56.369Z,56.00
2019-02-24T22:18:27.885Z,51.60
2019-02-24T22:20:59.221Z,51.80
2019-02-24T22:23:30.572Z,55.60
2019-02-24T22:26:01.714Z,52.30
2019-02-24T22:28:33.006Z,51.50
2019-02-24T22:31:04.169Z,53.40
2019-02-24T22:33:35.581Z,58.20
2019-02-24T22:36:06.717Z,55.20
2019-02-24T22:38:38.169Z,54.60
2019-02-24T22:41:09.363Z,55.80
2019-02-24T22:43:40.873Z,56.10
2019-02-24T22:46:11.979Z,53.20
2019-02-24T22:48:43.353Z,56.70
2019-02-24T22:51:14.446Z,57.50
2019-02-24T22:53:45.951Z,56.70
2019-02-24T22:56:17.101Z,55.30
2019-02-24T22:58:48.745Z,54.40
2019-02-24T23:01:36.256Z,56.00
2019-02-24T23:04:12.467Z,57.80
2019-02-24T23:06:43.714Z,58.80
2019-02-24T23:09:20.158Z,57.30
2019-02-24T23:11:51.728Z,57.90
2019-02-24T23:14:24.399Z,61.20
2019-02-24T23:17:07.050Z,60.90
2019-02-24T23:19:38.555Z,60.30
2019-02-24T23:22:09.663Z,60.70
2019-02-24T23:24:41.435Z,60.50
2019-02-24T23:27:12.625Z,59.90
2019-02-24T23:29:44.164Z,64.10
2019-02-24T23:32:16.641Z,63.90
2019-02-24T23:34:48.320Z,61.40
2019-02-24T23:37:19.364Z,63.50
2019-02-24T23:39:50.811Z,65.50
2019-02-24T23:42:21.886Z,65.10
2019-02-24T23:44:53.209Z,68.00
2019-02-24T23:47:43.377Z,68.60
2019-02-24T23:50:14.731Z,68.20
2019-02-24T23:52:46.933Z,67.00
2019-02-24T23:55:18.341Z,63.00
2019-02-24T23:57:49.437Z,63.90
